Time;durP1;ratioP1;P1;durP2;ratioP2;P2;SDS_P1;SDS_P2;PMS_P1;PMS_P2;Temp;Humidity;BMP_temperature;BMP_pressure;BME280_temperature;BME280_humidity;BME280_pressure;Samples;Min_cycle;Max_cycle;Signal;HPM_P1;HPM_P2
2024/01/08 00:04:21;;;;;;;17.58;2.53;;;;;;;16.70;100.00;100783.41;10603882;27;20058;-75
2024/01/08 00:09:44;;;;;;;11.50;1.40;;;;;;;17.28;95.74;100764.13;10604002;27;20503;-75
2024/01/08 00:15:08;;;;;;;21.38;2.45;;;;;;;17.64;92.32;100783.31;10593658;27;20138;-75
2024/01/08 00:20:32;;;;;;;26.17;3.55;;;;;;;17.22;100.00;100788.22;10615351;27;20042;-75
2024/01/08 00:25:55;;;;;;;19.63;2.78;;;;;;;16.90;100.00;100803.69;10600316;28;20861;-75
2024/01/08 00:31:17;;;;;;;23.10;3.42;;;;;;;16.61;100.00;100801.25;10614672;28;20054;-75
2024/01/08 00:36:41;;;;;;;20.48;3.10;;;;;;;16.31;100.00;100810.34;10593651;28;20039;-75
2024/01/08 00:42:04;;;;;;;23.85;3.60;;;;;;;16.02;100.00;100799.88;10598528;28;20120;-75
2024/01/08 00:47:26;;;;;;;19.98;2.60;;;;;;;16.13;100.00;100805.16;10558445;28;20047;-75
2024/01/08 00:52:50;;;;;;;13.68;2.30;;;;;;;16.40;100.00;100815.63;10568058;28;20479;-75
2024/01/08 00:58:13;;;;;;;24.52;3.50;;;;;;;15.99;100.00;100794.59;10614230;28;20043;-75
2024/01/08 01:03:35;;;;;;;16.40;3.10;;;;;;;15.54;100.00;100791.28;10587450;28;20047;-75
2024/01/08 01:08:59;;;;;;;26.42;4.45;;;;;;;15.31;100.00;100793.09;10603878;28;20054;-75
2024/01/08 01:14:21;;;;;;;18.48;2.75;;;;;;;15.24;100.00;100801.09;10614729;28;20058;-75
2024/01/08 01:19:44;;;;;;;22.60;3.10;;;;;;;15.22;100.00;100805.56;10583830;28;20657;-75
2024/01/08 01:25:09;;;;;;;20.75;3.33;;;;;;;15.21;100.00;100801.13;10620762;27;20130;-75
2024/01/08 01:30:32;;;;;;;31.85;4.30;;;;;;;15.24;100.00;100809.06;10593134;27;20540;-75
2024/01/08 01:35:54;;;;;;;25.55;4.30;;;;;;;15.21;100.00;100783.38;10621454;27;20050;-74
2024/01/08 01:41:18;;;;;;;21.45;3.13;;;;;;;15.27;100.00;100796.66;10620719;27;20051;-75
2024/01/08 01:46:43;;;;;;;41.35;5.65;;;;;;;15.69;100.00;100781.44;10606385;27;20051;-75
2024/01/08 01:52:07;;;;;;;54.00;5.88;;;;;;;16.28;100.00;100794.38;10611451;27;20047;-75
2024/01/08 01:57:32;;;;;;;32.28;3.15;;;;;;;16.37;100.00;100791.66;10619787;27;20070;-75
2024/01/08 02:02:55;;;;;;;41.42;4.35;;;;;;;16.57;99.34;100783.50;10578203;27;20043;-75
2024/01/08 02:08:18;;;;;;;42.35;6.57;;;;;;;16.35;100.00;100782.78;10595059;27;20797;-75
2024/01/08 02:13:42;;;;;;;42.40;6.10;;;;;;;16.03;100.00;100771.47;10603416;27;20046;-75
2024/01/08 02:19:05;;;;;;;36.13;4.75;;;;;;;15.82;100.00;100764.50;10590625;27;20055;-75
2024/01/08 02:24:29;;;;;;;55.25;7.45;;;;;;;16.03;100.00;100760.81;10604343;27;20035;-75
2024/01/08 02:29:51;;;;;;;48.95;5.25;;;;;;;16.39;96.13;100771.22;10602905;27;20104;-75
2024/01/08 02:35:14;;;;;;;43.28;4.63;;;;;;;16.56;90.78;100777.28;10617631;27;20643;-75
2024/01/08 02:40:38;;;;;;;45.92;5.93;;;;;;;16.57;89.59;100786.16;10589313;27;20047;-75
2024/01/08 02:46:00;;;;;;;49.50;6.57;;;;;;;16.63;88.68;100789.69;10605012;27;20043;-75
2024/01/08 02:51:23;;;;;;;55.25;7.03;;;;;;;16.46;93.13;100793.38;10621422;27;20050;-75
2024/01/08 02:56:47;;;;;;;46.92;6.22;;;;;;;16.33;96.60;100796.16;10638450;27;20375;-75
2024/01/08 03:02:10;;;;;;;46.53;5.50;;;;;;;16.21;99.33;100803.34;10617910;27;20047;-75
2024/01/08 03:07:32;;;;;;;50.72;5.05;;;;;;;16.08;100.00;100802.50;10572820;27;20058;-75
2024/01/08 03:12:56;;;;;;;44.72;5.75;;;;;;;16.13;100.00;100807.81;10595360;27;20115;-75
2024/01/08 03:18:19;;;;;;;47.92;7.13;;;;;;;16.16;100.00;100800.69;10603335;27;20044;-75
2024/01/08 03:23:41;;;;;;;64.40;7.15;;;;;;;16.42;100.00;100824.47;10632849;27;20047;-75
2024/01/08 03:29:06;;;;;;;50.05;6.00;;;;;;;16.49;100.00;100820.88;10594519;27;20042;-75
2024/01/08 03:34:28;;;;;;;43.13;5.28;;;;;;;16.78;100.00;100823.34;10644662;27;20087;-74
2024/01/08 03:39:51;;;;;;;42.65;4.80;;;;;;;16.80;100.00;100810.91;10626768;27;20387;-74
2024/01/08 03:45:15;;;;;;;51.00;6.68;;;;;;;16.69;100.00;100821.63;10644432;27;20047;-75
2024/01/08 03:50:37;;;;;;;45.13;5.45;;;;;;;16.77;100.00;100839.34;10597280;27;20047;-75
2024/01/08 03:56:00;;;;;;;56.58;6.57;;;;;;;16.80;100.00;100829.56;10627427;27;20051;-75
2024/01/08 04:01:24;;;;;;;40.58;5.25;;;;;;;16.90;100.00;100833.91;10601128;27;20046;-75
2024/01/08 04:06:47;;;;;;;38.67;4.10;;;;;;;16.73;100.00;100847.41;10600976;27;20043;-75
2024/01/08 04:12:10;;;;;;;39.22;5.97;;;;;;;16.76;100.00;100840.25;10586981;27;20047;-75
2024/01/08 04:17:34;;;;;;;54.03;6.72;;;;;;;16.60;100.00;100851.06;10600324;27;20130;-75
2024/01/08 04:22:56;;;;;;;38.45;4.88;;;;;;;16.37;100.00;100852.94;10601432;27;20429;-74
2024/01/08 04:28:20;;;;;;;34.15;4.20;;;;;;;16.30;100.00;100857.44;10585609;27;20503;-75
2024/01/08 04:33:44;;;;;;;30.08;3.97;;;;;;;16.38;100.00;100869.81;10613019;28;20089;-75
2024/01/08 04:39:07;;;;;;;37.28;5.32;;;;;;;16.73;100.00;100874.06;10599234;28;20043;-75
2024/01/08 04:44:32;;;;;;;31.60;4.22;;;;;;;16.90;100.00;100881.00;10600754;28;20147;-75
2024/01/08 04:49:56;;;;;;;29.25;4.38;;;;;;;16.96;100.00;100878.28;10600621;28;20178;-75
2024/01/08 04:55:19;;;;;;;25.20;3.90;;;;;;;17.11;100.00;100879.06;10600870;27;20236;-75
2024/01/08 05:00:42;;;;;;;26.20;3.50;;;;;;;17.04;100.00;100879.13;10607820;27;20054;-75
2024/01/08 05:06:06;;;;;;;43.40;12.48;;;;;;;16.98;100.00;100895.19;10622301;27;20039;-75
2024/01/08 05:11:29;;;;;;;28.33;4.63;;;;;;;16.81;100.00;100889.97;10607584;27;20146;-75
2024/01/08 05:16:51;;;;;;;21.77;4.90;;;;;;;16.63;100.00;100887.44;10596468;27;20054;-75
2024/01/08 05:22:16;;;;;;;31.30;4.75;;;;;;;16.55;100.00;100889.22;10605744;27;20119;-74
2024/01/08 05:27:38;;;;;;;19.45;3.45;;;;;;;16.48;100.00;100896.38;10614012;27;20050;-75
2024/01/08 05:33:00;;;;;;;26.60;5.53;;;;;;;16.28;100.00;100900.94;10590268;27;20051;-76
2024/01/08 05:38:25;;;;;;;37.05;4.70;;;;;;;16.38;100.00;100907.13;10606760;27;20440;-75
2024/01/08 05:43:47;;;;;;;29.60;3.90;;;;;;;16.42;100.00;100908.84;10607268;27;20063;-75
2024/01/08 05:49:10;;;;;;;23.38;3.63;;;;;;;16.51;100.00;100917.69;10578623;27;20394;-75
2024/01/08 05:54:34;;;;;;;19.42;2.85;;;;;;;16.51;100.00;100922.16;10606650;27;20046;-75
2024/01/08 05:59:56;;;;;;;37.15;5.05;;;;;;;16.58;100.00;100921.22;10620644;27;20046;-75
2024/01/08 06:05:19;;;;;;;30.20;4.78;;;;;;;16.83;100.00;100944.19;10614313;27;20047;-74
2024/01/08 06:10:42;;;;;;;22.45;4.95;;;;;;;16.91;100.00;100944.13;10590018;27;20503;-75
2024/01/08 06:16:05;;;;;;;17.80;2.65;;;;;;;17.18;100.00;100953.69;10605189;27;20079;-74
2024/01/08 06:21:28;;;;;;;23.52;3.00;;;;;;;17.44;99.77;100957.91;10604062;27;20051;-75
2024/01/08 06:26:52;;;;;;;26.02;4.18;;;;;;;17.57;98.38;100968.47;10604807;27;20047;-74
2024/01/08 06:32:14;;;;;;;68.32;37.72;;;;;;;18.00;99.91;100977.81;10591529;27;20043;-74
2024/01/08 06:37:37;;;;;;;52.92;27.50;;;;;;;18.05;100.00;100986.66;10613478;27;20047;-75
2024/01/08 06:43:00;;;;;;;42.97;21.23;;;;;;;18.23;100.00;100985.56;10603918;27;20076;-75
2024/01/08 06:48:23;;;;;;;41.80;15.60;;;;;;;18.77;100.00;100997.38;10608182;27;20051;-75
2024/01/08 06:53:45;;;;;;;31.20;6.53;;;;;;;19.05;96.43;101005.84;10549101;28;20446;-75
2024/01/08 06:59:09;;;;;;;25.45;4.43;;;;;;;18.83;97.69;101007.09;10560055;28;20050;-75
2024/01/08 07:04:32;;;;;;;36.85;7.45;;;;;;;18.85;96.96;101022.19;10561099;28;20047;-75
2024/01/08 07:09:54;;;;;;;26.95;6.57;;;;;;;19.26;93.55;101012.66;10560373;28;20069;-76
2024/01/08 07:15:41;;;;;;;23.20;5.57;;;;;;;19.89;87.68;101022.31;10574379;28;20048;-75
2024/01/08 07:21:04;;;;;;;27.52;7.57;;;;;;;20.15;80.77;101037.03;10555082;28;20539;-75
2024/01/08 07:26:26;;;;;;;20.13;3.58;;;;;;;20.27;76.29;101034.09;10560613;28;20138;-75
2024/01/08 07:31:51;;;;;;;28.13;11.02;;;;;;;20.91;69.95;101035.47;10572932;28;20093;-75
2024/01/08 07:37:14;;;;;;;18.13;4.00;;;;;;;20.82;64.49;101032.97;10573557;28;20123;-75
2024/01/08 07:44:11;;;;;;;19.70;6.00;;;;;;;20.83;67.55;101034.72;10559915;27;20780;-73
2024/01/08 07:49:33;;;;;;;18.20;4.88;;;;;;;20.97;61.59;101032.63;10563380;28;20075;-73
2024/01/08 07:54:56;;;;;;;17.80;4.22;;;;;;;21.23;58.87;101037.44;10570962;28;20047;-77
2024/01/08 08:00:22;;;;;;;15.70;4.53;;;;;;;20.88;57.53;101038.19;10553124;28;20200;-76
2024/01/08 08:05:45;;;;;;;11.65;2.92;;;;;;;21.43;56.33;101046.78;10560653;28;20326;-76
2024/01/08 08:11:08;;;;;;;6.38;2.58;;;;;;;22.39;50.72;101048.72;10550376;28;20071;-77
2024/01/08 08:16:32;;;;;;;9.80;2.33;;;;;;;22.32;50.03;101053.41;10555587;28;20048;-77
2024/01/08 08:21:55;;;;;;;7.82;2.33;;;;;;;23.29;47.06;101039.72;10560960;28;20682;-78
2024/01/08 08:27:17;;;;;;;10.00;2.10;;;;;;;23.28;45.94;101054.13;10564202;28;20056;-77
2024/01/08 08:32:41;;;;;;;10.15;2.28;;;;;;;22.16;48.00;101050.28;10559317;28;20047;-76
2024/01/08 08:38:04;;;;;;;10.00;2.35;;;;;;;22.34;49.25;101054.25;10535897;28;20051;-77
2024/01/08 08:43:28;;;;;;;10.85;3.58;;;;;;;22.07;50.20;101047.81;10551324;28;20430;-77
2024/01/08 08:48:52;;;;;;;10.05;4.20;;;;;;;21.35;53.71;101054.13;10550368;28;20144;-76
2024/01/08 08:54:15;;;;;;;9.63;2.95;;;;;;;21.31;54.57;101043.50;10527411;28;20058;-77
2024/01/08 08:59:37;;;;;;;11.43;2.63;;;;;;;21.98;52.96;101031.06;10520942;28;20048;-76
2024/01/08 09:05:04;;;;;;;11.55;3.58;;;;;;;22.53;51.94;101025.00;10519020;28;20056;-76
2024/01/08 09:10:27;;;;;;;13.65;7.15;;;;;;;24.17;45.79;101035.81;10523792;28;20421;-77
2024/01/08 09:15:49;;;;;;;9.05;3.20;;;;;;;25.53;41.95;101021.53;10512676;28;20397;-77
2024/01/08 09:21:15;;;;;;;9.50;3.38;;;;;;;25.67;40.79;101027.25;10533655;28;20076;-77
2024/01/08 09:26:39;;;;;;;10.27;3.72;;;;;;;25.45;41.33;101022.78;10534908;28;20044;-77
2024/01/08 09:32:01;;;;;;;16.65;7.40;;;;;;;24.94;42.79;101005.91;10526737;28;20098;-78
2024/01/08 09:37:25;;;;;;;11.93;2.83;;;;;;;23.95;44.38;100997.97;10528187;28;20052;-73
2024/01/08 09:42:53;;;;;;;14.52;2.92;;;;;;;23.38;46.29;100981.94;10532885;28;20063;-74
2024/01/08 09:48:16;;;;;;;16.50;4.82;;;;;;;23.12;48.07;100981.91;10517426;28;20047;-74
2024/01/08 09:53:40;;;;;;;15.07;3.83;;;;;;;22.46;49.78;100989.31;10528490;28;20048;-74
2024/01/08 09:59:03;;;;;;;13.52;2.65;;;;;;;22.13;52.38;100983.09;10543976;28;20381;-74
2024/01/08 10:04:26;;;;;;;12.32;2.35;;;;;;;21.90;53.72;100974.78;10530300;28;20436;-73
2024/01/08 10:09:50;;;;;;;14.60;4.80;;;;;;;22.78;52.37;100961.44;10513436;28;20040;-74
2024/01/08 10:15:18;;;;;;;9.40;2.33;;;;;;;22.75;50.15;100963.38;10525215;28;20369;-75
2024/01/08 10:20:40;;;;;;;14.82;4.00;;;;;;;22.52;49.60;100962.22;10518862;28;20143;-75
2024/01/08 10:26:05;;;;;;;13.00;4.82;;;;;;;22.03;51.69;100952.03;10532806;28;20132;-75
2024/01/08 10:31:30;;;;;;;;;;;;;;;23.10;49.63;100949.66;10519402;28;20055;-75
2024/01/08 10:36:54;;;;;;;11.90;2.75;;;;;;;23.34;48.08;100942.56;10531992;28;20018;-75
2024/01/08 10:42:18;;;;;;;9.95;2.22;;;;;;;23.67;46.42;100922.56;10520310;28;20060;-75
2024/01/08 10:47:50;;;;;;;8.13;2.85;;;;;;;24.38;44.74;100924.41;10544769;28;20036;-75
2024/01/08 10:53:29;;;;;;;11.48;3.35;;;;;;;25.21;43.58;100921.97;10505036;28;20055;-75
2024/01/08 10:59:05;;;;;;;9.82;2.10;;;;;;;25.18;43.36;100911.31;10542261;28;20105;-75
2024/01/08 11:04:28;;;;;;;11.77;3.03;;;;;;;24.09;45.18;100901.19;10480964;28;20136;-76
2024/01/08 11:09:50;;;;;;;11.07;2.65;;;;;;;23.59;45.28;100892.28;10502913;28;20570;-75
2024/01/08 11:15:17;;;;;;;8.82;2.03;;;;;;;22.72;47.23;100879.97;10510955;28;20102;-75
2024/01/08 11:20:49;;;;;;;8.63;2.30;;;;;;;22.79;47.61;100869.00;10525888;28;20051;-74
2024/01/08 11:26:19;;;;;;;5.43;2.00;;;;;;;22.98;46.87;100867.44;10530117;28;20452;-75
2024/01/08 11:32:29;;;;;;;10.95;3.60;;;;;;;23.24;45.80;100862.97;10504186;28;20637;-76
2024/01/08 11:38:14;;;;;;;7.38;2.05;;;;;;;23.32;44.92;100852.81;10514816;28;20044;-76
2024/01/08 11:43:37;;;;;;;6.68;1.90;;;;;;;23.19;44.21;100865.84;10529288;28;20067;-75
2024/01/08 11:49:02;;;;;;;5.97;1.90;;;;;;;22.59;46.05;100866.03;10513989;28;20090;-77
2024/01/08 11:54:27;;;;;;;17.45;2.53;;;;;;;22.20;47.48;100858.28;10516682;28;20054;-76
2024/01/08 11:59:50;;;;;;;9.00;2.45;;;;;;;21.85;48.94;100877.25;10529926;28;20064;-77
2024/01/08 12:05:14;;;;;;;11.68;4.47;;;;;;;21.90;49.29;100872.63;10528391;28;20510;-77
2024/01/08 12:10:37;;;;;;;9.90;1.55;;;;;;;21.65;50.68;100880.53;10519109;28;20105;-76
2024/01/08 12:16:01;;;;;;;8.98;2.28;;;;;;;21.70;50.51;100872.31;10514959;28;20039;-77
2024/01/08 12:21:25;;;;;;;8.15;2.40;;;;;;;21.66;49.54;100874.19;10522465;28;20056;-75
2024/01/08 12:26:48;;;;;;;7.93;1.85;;;;;;;21.66;49.07;100876.03;10494995;28;20511;-77
2024/01/08 12:32:14;;;;;;;10.02;2.10;;;;;;;21.58;49.23;100872.66;10509507;28;20412;-74
2024/01/08 12:37:38;;;;;;;7.43;2.15;;;;;;;21.33;50.93;100878.69;10522826;28;20052;-75
2024/01/08 12:43:01;;;;;;;13.15;3.80;;;;;;;21.10;52.58;100881.06;10540940;28;20048;-75
2024/01/08 12:48:23;;;;;;;7.97;2.83;;;;;;;21.01;56.16;100892.91;10535859;28;20044;-75
2024/01/08 12:53:47;;;;;;;10.23;1.88;;;;;;;20.66;59.76;100885.75;10520473;28;20048;-76
2024/01/08 12:59:12;;;;;;;9.20;1.85;;;;;;;20.56;62.77;100889.56;10535335;28;20101;-76
2024/01/08 13:04:34;;;;;;;7.25;1.83;;;;;;;20.56;63.79;100888.66;10535372;28;20044;-76
2024/01/08 13:09:58;;;;;;;8.27;1.52;;;;;;;20.54;66.13;100886.03;10535957;28;20097;-76
2024/01/08 13:15:21;;;;;;;6.70;1.40;;;;;;;20.43;66.65;100879.13;10550592;28;20664;-76
2024/01/08 13:20:43;;;;;;;10.80;2.22;;;;;;;20.23;68.91;100888.47;10521488;28;20090;-75
2024/01/08 13:26:07;;;;;;;13.95;2.28;;;;;;;19.94;71.01;100884.69;10535028;28;20048;-76
2024/01/08 13:31:30;;;;;;;12.98;2.08;;;;;;;19.88;72.76;100880.34;10535013;28;20067;-77
2024/01/08 13:36:52;;;;;;;7.78;2.03;;;;;;;19.78;73.63;100887.66;10549750;28;20043;-76
2024/01/08 13:42:17;;;;;;;7.00;1.60;;;;;;;19.92;71.51;100884.69;10531723;28;20040;-76
2024/01/08 13:47:40;;;;;;;10.07;1.92;;;;;;;19.76;73.04;100884.13;10492115;28;20412;-76
2024/01/08 13:53:03;;;;;;;6.45;1.65;;;;;;;19.61;76.23;100873.72;10504324;28;20067;-75
2024/01/08 13:58:28;;;;;;;8.25;1.65;;;;;;;19.49;79.04;100873.97;10520578;28;20072;-75
2024/01/08 14:03:50;;;;;;;9.73;2.30;;;;;;;19.45;79.96;100875.78;10530891;28;20054;-76
2024/01/08 14:09:15;;;;;;;9.68;1.80;;;;;;;19.34;81.41;100882.25;10532420;28;20123;-76
2024/01/08 14:14:39;;;;;;;8.85;2.08;;;;;;;19.24;80.85;100884.19;10515998;28;20052;-76
2024/01/08 14:20:02;;;;;;;8.07;2.22;;;;;;;19.26;81.03;100886.84;10510368;28;20055;-76
2024/01/08 14:25:24;;;;;;;10.38;1.50;;;;;;;19.15;81.15;100889.72;10514253;28;20071;-76
2024/01/08 14:30:49;;;;;;;8.40;1.50;;;;;;;18.99;82.96;100897.13;10496230;28;20040;-76
2024/01/08 14:36:12;;;;;;;8.48;1.50;;;;;;;18.82;86.10;100891.19;10528072;28;20571;-75
2024/01/08 14:41:34;;;;;;;13.25;1.80;;;;;;;18.55;91.17;100897.84;10507316;28;20044;-75
2024/01/08 14:46:58;;;;;;;7.72;2.25;;;;;;;18.30;95.03;100899.06;10511416;28;20252;-76
2024/01/08 14:52:21;;;;;;;10.98;2.05;;;;;;;18.09;96.80;100908.25;10522506;28;20040;-76
2024/01/08 14:57:43;;;;;;;4.65;1.33;;;;;;;17.89;98.34;100908.50;10509589;28;20059;-75
2024/01/08 15:03:08;;;;;;;6.10;1.63;;;;;;;17.65;100.00;100910.56;10526420;28;20122;-74
2024/01/08 15:08:30;;;;;;;11.23;1.95;;;;;;;17.45;100.00;100911.63;10512639;28;20044;-75
2024/01/08 15:13:52;;;;;;;10.25;2.53;;;;;;;17.24;100.00;100914.50;10514091;28;20537;-74
2024/01/08 15:19:16;;;;;;;12.95;1.60;;;;;;;17.08;100.00;100912.84;10506419;28;20052;-75
2024/01/08 15:24:39;;;;;;;9.07;1.67;;;;;;;16.97;100.00;100917.41;10509813;28;20056;-75
2024/01/08 15:30:04;;;;;;;6.88;1.55;;;;;;;16.92;100.00;100924.56;10509697;28;20508;-75
2024/01/08 15:35:33;;;;;;;8.30;1.60;;;;;;;16.68;100.00;100928.28;10519483;28;20063;-74
2024/01/08 15:40:55;;;;;;;9.80;1.80;;;;;;;16.49;100.00;100919.47;10534921;28;20052;-75
2024/01/08 15:46:18;;;;;;;7.72;1.80;;;;;;;16.14;100.00;100916.13;10516305;28;20055;-74
2024/01/08 15:51:42;;;;;;;12.85;2.50;;;;;;;15.99;100.00;100921.53;10529955;28;20400;-75
2024/01/08 15:57:04;;;;;;;8.32;1.55;;;;;;;15.92;100.00;100928.66;10522019;28;20612;-75
2024/01/08 16:02:27;;;;;;;8.60;2.13;;;;;;;15.77;100.00;100932.25;10516482;28;20528;-75
2024/01/08 16:07:51;;;;;;;15.68;2.47;;;;;;;15.68;100.00;100939.38;10533835;28;20127;-75
2024/01/08 16:13:14;;;;;;;10.43;2.33;;;;;;;15.73;100.00;100949.13;10515422;28;20082;-76
2024/01/08 16:18:40;;;;;;;11.15;2.03;;;;;;;15.81;100.00;100952.66;10527348;28;20051;-75
2024/01/08 16:24:04;;;;;;;10.10;1.98;;;;;;;15.68;100.00;100956.25;10515340;28;20056;-74
2024/01/08 16:29:27;;;;;;;9.50;2.17;;;;;;;15.69;100.00;100955.31;10539095;28;20442;-75
2024/01/08 16:34:49;;;;;;;6.40;2.30;;;;;;;15.75;100.00;100954.44;10503696;28;20523;-75
2024/01/08 16:40:13;;;;;;;10.30;2.20;;;;;;;15.78;100.00;100957.97;10529235;28;20048;-76
2024/01/08 16:45:37;;;;;;;8.02;1.80;;;;;;;15.85;100.00;100957.06;10525885;28;20592;-75
2024/01/08 16:51:05;;;;;;;13.32;1.67;;;;;;;15.94;100.00;100961.50;10500289;28;20051;-75
2024/01/08 16:56:30;;;;;;;11.15;1.83;;;;;;;16.18;100.00;100958.72;10520769;28;20079;-75
2024/01/08 17:01:53;;;;;;;8.07;1.50;;;;;;;16.22;100.00;100948.94;10532263;28;20048;-74
2024/01/08 17:07:15;;;;;;;9.52;2.00;;;;;;;16.38;100.00;100947.97;10524831;28;20124;-74
2024/01/08 17:12:39;;;;;;;9.40;2.20;;;;;;;16.66;100.00;100943.41;10512884;28;20134;-76
2024/01/08 17:18:02;;;;;;;10.25;2.47;;;;;;;16.83;100.00;100944.19;10519803;28;20068;-75
2024/01/08 17:23:24;;;;;;;6.80;1.60;;;;;;;16.91;100.00;100949.47;10528717;28;20052;-75
2024/01/08 17:28:54;;;;;;;10.65;1.80;;;;;;;16.93;100.00;100945.00;10508934;28;20044;-75
2024/01/08 17:34:17;;;;;;;12.50;2.47;;;;;;;17.00;100.00;100947.59;10544106;28;20146;-75
2024/01/08 17:39:40;;;;;;;7.65;1.75;;;;;;;17.02;100.00;100935.13;10521587;28;20094;-74
2024/01/08 17:45:06;;;;;;;12.60;2.47;;;;;;;17.03;100.00;100931.56;10525641;28;20526;-75
2024/01/08 17:50:31;;;;;;;7.55;2.22;;;;;;;17.10;100.00;100941.31;10521431;28;20052;-74
2024/01/08 17:55:54;;;;;;;9.23;2.05;;;;;;;17.12;100.00;100943.97;10510308;28;20099;-75
2024/01/08 18:01:19;;;;;;;12.05;1.83;;;;;;;17.16;100.00;100934.13;10520788;28;20041;-75
2024/01/08 18:06:42;;;;;;;11.70;2.70;;;;;;;17.31;100.00;100936.69;10530360;28;20738;-75
2024/01/08 18:12:04;;;;;;;7.28;2.17;;;;;;;17.54;100.00;100942.66;10510614;28;20055;-74
2024/01/08 18:17:29;;;;;;;8.73;2.30;;;;;;;17.49;100.00;100932.03;10511443;28;20523;-75
2024/01/08 18:22:51;;;;;;;13.15;1.67;;;;;;;17.51;100.00;100940.94;10534753;28;20040;-74
2024/01/08 18:28:14;;;;;;;11.13;2.40;;;;;;;17.31;100.00;100942.91;10529559;28;20051;-75
2024/01/08 18:33:39;;;;;;;7.82;1.50;;;;;;;17.48;100.00;100958.75;10510212;28;20520;-76
2024/01/08 18:39:03;;;;;;;12.25;2.40;;;;;;;17.36;100.00;100961.53;10521495;28;20127;-75
2024/01/08 18:44:26;;;;;;;8.38;1.77;;;;;;;16.91;100.00;100960.13;10518558;28;20063;-75
2024/01/08 18:49:50;;;;;;;7.50;1.58;;;;;;;16.86;100.00;100968.16;10527015;28;20385;-76
2024/01/08 18:55:13;;;;;;;11.23;2.35;;;;;;;16.75;100.00;100964.66;10533361;28;20044;-75
2024/01/08 19:00:38;;;;;;;9.35;2.05;;;;;;;16.70;100.00;100954.03;10536451;28;20044;-77
2024/01/08 19:06:02;;;;;;;11.77;1.92;;;;;;;16.46;100.00;100947.94;10519017;28;20052;-75
2024/01/08 19:11:25;;;;;;;16.90;7.03;;;;;;;16.61;100.00;100937.19;10531795;28;20408;-76
2024/01/08 19:16:50;;;;;;;17.05;10.60;;;;;;;16.34;100.00;100951.56;10513480;28;20194;-75
2024/01/08 19:22:14;;;;;;;21.35;10.35;;;;;;;16.15;100.00;100940.06;10533411;28;20047;-76
2024/01/08 19:27:36;;;;;;;14.32;6.00;;;;;;;16.05;100.00;100937.47;10526269;28;20425;-76
2024/01/08 19:32:59;;;;;;;20.60;13.88;;;;;;;15.97;100.00;100937.50;10520826;28;20056;-75
2024/01/08 19:38:23;;;;;;;16.17;4.95;;;;;;;16.03;100.00;100926.81;10533056;28;20113;-76
2024/01/08 19:43:45;;;;;;;8.65;1.52;;;;;;;16.01;100.00;100941.06;10533833;28;20083;-74
2024/01/08 19:49:08;;;;;;;20.98;13.35;;;;;;;16.45;100.00;100941.72;10531102;28;20043;-76
2024/01/08 19:54:32;;;;;;;11.05;2.05;;;;;;;16.60;100.00;100935.47;10517111;28;20052;-74
2024/01/08 19:59:54;;;;;;;8.45;1.40;;;;;;;16.52;100.00;100940.78;10530082;28;20048;-75
2024/01/08 20:05:17;;;;;;;13.90;2.60;;;;;;;16.43;100.00;100935.50;10518819;28;20055;-75
2024/01/08 20:10:41;;;;;;;14.32;2.17;;;;;;;16.37;100.00;100927.56;10529940;28;20094;-76
2024/01/08 20:16:07;;;;;;;12.77;2.22;;;;;;;16.49;100.00;100915.94;10542888;28;20059;-75
2024/01/08 20:21:29;;;;;;;16.38;1.77;;;;;;;16.46;100.00;100916.84;10510126;28;20044;-75
2024/01/08 20:26:53;;;;;;;11.48;2.75;;;;;;;16.44;100.00;100923.06;10521783;28;20123;-74
2024/01/08 20:32:17;;;;;;;20.52;3.00;;;;;;;16.22;100.00;100928.50;10512085;28;20055;-74
2024/01/08 20:37:39;;;;;;;15.60;3.58;;;;;;;16.14;100.00;100913.47;10507287;28;20048;-74
2024/01/08 20:43:04;;;;;;;19.25;2.55;;;;;;;16.10;100.00;100890.41;10524991;28;20048;-74
2024/01/08 20:48:26;;;;;;;23.35;3.85;;;;;;;16.01;100.00;100880.69;10527042;28;20051;-74
2024/01/08 20:53:48;;;;;;;23.85;4.72;;;;;;;15.90;100.00;100877.16;10531866;28;20400;-74
2024/01/08 20:59:13;;;;;;;22.85;3.78;;;;;;;16.02;100.00;100878.88;10528074;28;20487;-75
2024/01/08 21:04:35;;;;;;;38.45;6.50;;;;;;;16.05;100.00;100893.09;10524827;28;20102;-75
2024/01/08 21:09:57;;;;;;;26.13;3.63;;;;;;;16.10;100.00;100898.38;10493892;28;20036;-74
2024/01/08 21:15:21;;;;;;;22.05;3.45;;;;;;;16.07;100.00;100888.66;10499179;28;20048;-74
2024/01/08 21:20:44;;;;;;;28.67;3.85;;;;;;;16.14;100.00;100885.06;10493916;28;20504;-74
2024/01/08 21:26:06;;;;;;;19.27;3.17;;;;;;;16.07;100.00;100886.00;10518930;28;20054;-75
2024/01/08 21:31:30;;;;;;;20.90;2.90;;;;;;;16.02;100.00;100892.19;10530167;28;20044;-74
2024/01/08 21:36:53;;;;;;;19.08;2.40;;;;;;;15.94;100.00;100893.16;10532926;28;20492;-74
2024/01/08 21:42:16;;;;;;;24.20;3.20;;;;;;;15.78;100.00;100904.72;10518942;28;20059;-74
2024/01/08 21:47:40;;;;;;;26.83;2.42;;;;;;;15.66;100.00;100896.78;10514931;28;20044;-74
2024/01/08 21:53:02;;;;;;;20.13;3.25;;;;;;;15.66;100.00;100898.56;10539091;28;20551;-74
2024/01/08 21:58:25;;;;;;;22.50;3.72;;;;;;;15.46;100.00;100891.50;10533931;28;20052;-74
2024/01/08 22:03:49;;;;;;;20.67;4.18;;;;;;;15.18;100.00;100895.06;10509656;28;20109;-74
2024/01/08 22:09:11;;;;;;;28.63;6.65;;;;;;;14.96;100.00;100882.69;10519606;28;20068;-75
2024/01/08 22:14:34;;;;;;;41.83;15.50;;;;;;;14.84;100.00;100882.69;10518870;28;20052;-74
2024/01/08 22:19:58;;;;;;;37.40;10.20;;;;;;;14.83;100.00;100879.16;10518805;28;20047;-74
2024/01/08 22:25:20;;;;;;;21.52;3.58;;;;;;;14.96;100.00;100861.44;10532018;28;20047;-74
2024/01/08 22:30:43;;;;;;;23.27;3.47;;;;;;;14.98;100.00;100852.56;10531964;28;20105;-74
2024/01/08 22:36:07;;;;;;;17.33;2.70;;;;;;;15.09;100.00;100837.50;10518543;28;20043;-74
2024/01/08 22:41:30;;;;;;;24.45;3.17;;;;;;;15.00;100.00;100826.88;10524700;28;20056;-74
2024/01/08 22:46:52;;;;;;;22.35;2.85;;;;;;;14.98;100.00;100817.09;10530337;28;20054;-74
2024/01/08 22:52:16;;;;;;;22.15;4.15;;;;;;;14.95;100.00;100822.44;10528238;28;20044;-74
2024/01/08 22:57:39;;;;;;;25.42;3.55;;;;;;;14.91;100.00;100808.25;10517012;28;20393;-74
2024/01/08 23:03:01;;;;;;;15.82;2.95;;;;;;;14.90;100.00;100809.13;10529666;28;20036;-74
2024/01/08 23:08:25;;;;;;;23.30;2.63;;;;;;;15.06;100.00;100800.25;10516430;28;20044;-74
2024/01/08 23:13:48;;;;;;;27.88;4.63;;;;;;;15.06;100.00;100815.31;10516206;28;20094;-74
2024/01/08 23:19:10;;;;;;;19.63;3.33;;;;;;;15.20;100.00;100802.88;10531000;28;20048;-74
2024/01/08 23:24:36;;;;;;;28.58;3.22;;;;;;;15.05;100.00;100785.19;10530415;28;20060;-74
2024/01/08 23:30:00;;;;;;;26.98;3.15;;;;;;;15.00;100.00;100786.97;10517909;28;20048;-74
2024/01/08 23:35:22;;;;;;;33.10;3.60;;;;;;;15.03;100.00;100788.75;10529202;28;20056;-74
2024/01/08 23:40:46;;;;;;;24.02;3.15;;;;;;;14.97;100.00;100784.31;10534347;28;20121;-75
2024/01/08 23:46:09;;;;;;;25.55;3.75;;;;;;;14.84;100.00;100787.00;10527571;28;20408;-74
2024/01/08 23:51:31;;;;;;;27.88;3.47;;;;;;;15.08;100.00;100790.53;10529394;28;20036;-74
2024/01/08 23:56:55;;;;;;;31.48;4.25;;;;;;;15.30;100.00;100782.44;10529500;28;20055;-74
